createdAt,value
2019-04-30T00:01:55.493Z,8.7
2019-04-30T00:17:10.661Z,8.3
2019-04-30T00:32:21.336Z,8.2
2019-04-30T00:47:35.148Z,7.8
2019-04-30T01:02:48.044Z,7.5
2019-04-30T01:18:01.176Z,7.3
2019-04-30T01:33:14.262Z,7.1
2019-04-30T01:48:20.233Z,6.8
2019-04-30T02:03:40.178Z,6.6
2019-04-30T02:18:53.006Z,6.4
2019-04-30T02:34:05.736Z,6.1
2019-04-30T02:49:20.300Z,6
2019-04-30T03:04:31.025Z,5.9
2019-04-30T03:19:43.564Z,5.7
2019-04-30T03:34:56.889Z,5.5
2019-04-30T03:50:09.254Z,5.5
2019-04-30T04:05:16.843Z,5.4
2019-04-30T04:20:33.426Z,5.2
2019-04-30T04:35:45.805Z,5.2
2019-04-30T04:50:59.983Z,5.3
2019-04-30T05:06:11.761Z,5.6
2019-04-30T05:21:23.316Z,5.8
2019-04-30T05:36:36.144Z,6.1
2019-04-30T05:51:54.983Z,6.3
2019-04-30T06:07:01.600Z,6.4
2019-04-30T06:22:14.446Z,6.7
2019-04-30T06:37:28.778Z,7.1
2019-04-30T06:52:40.716Z,7.2
2019-04-30T07:08:00.726Z,7.6
2019-04-30T07:23:29.459Z,8
2019-04-30T07:38:59.854Z,8.5
2019-04-30T07:54:29.809Z,8.8
2019-04-30T08:09:46.395Z,9
2019-04-30T08:24:59.570Z,9.5
2019-04-30T08:40:13.726Z,9.9
2019-04-30T08:55:22.674Z,10.3
2019-04-30T09:10:42.873Z,10.8
2019-04-30T09:25:58.580Z,11.2
2019-04-30T09:41:11.989Z,11.6
2019-04-30T09:56:19.313Z,12.2
2019-04-30T10:11:42.148Z,12.6
2019-04-30T10:26:57.601Z,13.4
2019-04-30T10:42:13.304Z,13.7
2019-04-30T10:57:16.010Z,13.9
2019-04-30T11:12:44.870Z,14.9
2019-04-30T11:28:01.888Z,16
2019-04-30T11:43:20.116Z,16.7
2019-04-30T11:58:35.516Z,16.9
2019-04-30T12:13:45.383Z,17.4
2019-04-30T12:29:11.194Z,17.8
2019-04-30T12:44:28.860Z,18
2019-04-30T12:59:45.727Z,18
2019-04-30T13:15:03.961Z,18.8
2019-04-30T13:30:18.577Z,18.9
2019-04-30T13:45:41.292Z,19.3
2019-04-30T14:01:00.141Z,19.6
2019-04-30T14:16:19.387Z,19.8
2019-04-30T14:31:20.921Z,20
2019-04-30T14:46:52.872Z,20.1
2019-04-30T15:02:16.228Z,19.9
2019-04-30T15:17:35.252Z,19.9
2019-04-30T15:32:53.704Z,19.7
2019-04-30T15:47:58.367Z,19.5
2019-04-30T16:03:27.887Z,19.2
2019-04-30T16:18:49.675Z,19
2019-04-30T16:34:07.912Z,18.7
2019-04-30T16:49:26.044Z,18.4
2019-04-30T17:04:29.736Z,17.9
2019-04-30T17:20:00.245Z,17.2
2019-04-30T17:35:19.088Z,16.6
2019-04-30T17:50:35.125Z,16.2
2019-04-30T18:05:51.739Z,15.8
2019-04-30T18:20:59.324Z,15.2
2019-04-30T18:36:24.077Z,14.5
2019-04-30T18:51:42.527Z,13.9
2019-04-30T19:06:55.456Z,13.4
2019-04-30T19:22:10.874Z,13.9
2019-04-30T19:37:22.194Z,13.3
2019-04-30T19:52:42.462Z,12.7
2019-04-30T20:07:58.703Z,12.4
2019-04-30T20:23:11.943Z,12.1
2019-04-30T20:37:13.308Z,12.7
2019-04-30T20:52:41.887Z,11.6
2019-04-30T21:07:59.102Z,11.3
2019-04-30T21:23:13.596Z,10.9
2019-04-30T21:38:29.200Z,10.6
2019-04-30T21:53:33.439Z,10.4
2019-04-30T22:08:58.434Z,10.2
2019-04-30T22:24:10.698Z,10.1
2019-04-30T22:39:24.803Z,9.9
2019-04-30T22:54:38.870Z,9.7
2019-04-30T23:09:51.240Z,9.5
2019-04-30T23:25:06.807Z,9.3
2019-04-30T23:40:20.547Z,9.1
2019-04-30T23:55:34.259Z,8.8
